Time;durP1;ratioP1;P1;durP2;ratioP2;P2;SDS_P1;SDS_P2;PMS_P1;PMS_P2;Temp;Humidity;BMP_temperature;BMP_pressure;BME280_temperature;BME280_humidity;BME280_pressure;Samples;Min_cycle;Max_cycle;Signal;HPM_P1;HPM_P2
2022/01/19 00:02:25;;;;;;;30.83;28.45;;;3.70;83.40;;;;;;5035526;28;20197;-71
2022/01/19 00:04:52;;;;;;;28.80;26.85;;;3.70;87.80;;;;;;5035453;28;20204;-71
2022/01/19 00:07:20;;;;;;;29.77;27.58;;;3.70;87.00;;;;;;5035922;28;20229;-72
2022/01/19 00:09:47;;;;;;;28.67;26.58;;;3.60;85.40;;;;;;5035175;28;20221;-72
2022/01/19 00:12:14;;;;;;;28.30;26.30;;;3.50;84.90;;;;;;5035348;28;20654;-71
2022/01/19 00:14:41;;;;;;;28.30;26.30;;;3.40;83.80;;;;;;5035272;28;20312;-72
2022/01/19 00:17:07;;;;;;;28.77;26.67;;;3.40;83.90;;;;;;5035334;28;20228;-72
2022/01/19 00:19:34;;;;;;;64.25;30.67;;;3.40;88.80;;;;;;5034948;28;20723;-72
2022/01/19 00:22:01;;;;;;;220.80;48.35;;;3.30;89.90;;;;;;5035359;28;20201;-72
2022/01/19 00:24:29;;;;;;;29.88;27.67;;;3.30;94.40;;;;;;5035208;28;20236;-71
2022/01/19 00:26:56;;;;;;;29.60;27.60;;;3.20;91.50;;;;;;5035076;28;20233;-72
2022/01/19 00:29:23;;;;;;;28.30;26.30;;;3.10;89.20;;;;;;5034799;28;20275;-71
2022/01/19 00:31:50;;;;;;;28.00;25.90;;;3.00;88.30;;;;;;5035299;28;20197;-71
2022/01/19 00:34:17;;;;;;;27.50;25.60;;;3.00;87.50;;;;;;5035017;28;20217;-71
2022/01/19 00:36:44;;;;;;;29.00;26.95;;;3.00;90.60;;;;;;5034948;28;20197;-71
2022/01/19 00:39:11;;;;;;;29.23;26.73;;;3.00;90.40;;;;;;5034649;28;20200;-71
2022/01/19 00:41:40;;;;;;;1999.90;497.58;;;2.90;88.70;;;;;;5035026;28;20197;-71
2022/01/19 00:44:07;;;;;;;68.43;30.27;;;3.00;97.40;;;;;;5034772;28;20201;-71
2022/01/19 00:46:34;;;;;;;29.85;27.65;;;3.00;98.20;;;;;;5034787;28;20659;-72
2022/01/19 00:49:01;;;;;;;1976.05;264.38;;;2.90;95.40;;;;;;5034757;28;20677;-72
2022/01/19 00:51:28;;;;;;;29.73;27.63;;;2.90;95.80;;;;;;5034552;28;20202;-72
2022/01/19 00:53:54;;;;;;;28.80;26.52;;;2.80;93.70;;;;;;5034574;28;20308;-72
2022/01/19 00:56:22;;;;;;;28.27;25.98;;;2.70;92.00;;;;;;5033815;28;20284;-72
2022/01/19 00:58:50;;;;;;;26.90;25.05;;;2.70;90.40;;;;;;5034405;28;20285;-72
2022/01/19 01:01:17;;;;;;;27.92;25.83;;;2.60;88.60;;;;;;5034371;28;20253;-72
2022/01/19 01:03:44;;;;;;;26.98;25.17;;;2.50;88.60;;;;;;5034285;28;20276;-72
2022/01/19 01:06:11;;;;;;;28.83;26.55;;;2.50;88.40;;;;;;5034415;28;20205;-72
2022/01/19 01:08:38;;;;;;;29.23;27.02;;;2.50;88.10;;;;;;5034323;28;20197;-72
2022/01/19 01:11:05;;;;;;;28.45;26.55;;;2.40;87.80;;;;;;5034145;28;20223;-71
2022/01/19 01:15:26;;;;;;;27.92;25.90;;;2.40;87.80;;;;;;5034167;28;20308;-71
2022/01/19 01:16:34;;;;;;;27.52;25.27;;;2.30;87.90;;;;;;5034090;28;20741;-72
2022/01/19 01:19:03;;;;;;;29.08;27.08;;;2.30;87.90;;;;;;5034118;28;20276;-72
2022/01/19 01:21:30;;;;;;;477.75;74.57;;;2.30;87.70;;;;;;5034102;28;20228;-72
2022/01/19 01:23:57;;;;;;;190.52;43.33;;;2.20;92.30;;;;;;5034041;28;20197;-71
2022/01/19 01:26:24;;;;;;;28.73;26.42;;;2.20;94.50;;;;;;5034031;28;20284;-72
2022/01/19 01:28:51;;;;;;;28.17;26.05;;;2.10;92.10;;;;;;5033906;28;20675;-72
2022/01/19 01:31:18;;;;;;;29.92;27.25;;;2.10;90.70;;;;;;5033707;28;20227;-71
2022/01/19 01:33:46;;;;;;;28.55;26.52;;;2.10;90.30;;;;;;5033823;28;20695;-72
2022/01/19 01:36:13;;;;;;;28.67;26.38;;;2.10;89.70;;;;;;5033711;28;20280;-72
2022/01/19 01:38:40;;;;;;;102.68;32.53;;;2.00;89.40;;;;;;5033952;28;20271;-72
2022/01/19 01:41:11;;;;;;;29.83;27.23;;;1.90;89.40;;;;;;5033590;28;20229;-72
2022/01/19 01:43:38;;;;;;;852.85;124.30;;;2.00;89.40;;;;;;5033671;28;20251;-71
2022/01/19 01:46:12;;;;;;;29.75;27.45;;;2.00;90.70;;;;;;5033667;28;20289;-71
2022/01/19 01:48:43;;;;;;;29.35;27.15;;;1.90;92.80;;;;;;5033518;28;20712;-72
2022/01/19 01:53:58;;;;;;;30.02;27.75;;;1.70;90.80;;;;;;5033537;28;20223;-72
2022/01/19 01:56:25;;;;;;;29.30;26.85;;;1.70;90.60;;;;;;5033420;28;20211;-72
2022/01/19 01:58:52;;;;;;;29.35;27.05;;;1.70;90.30;;;;;;5033145;28;20255;-72
2022/01/19 02:01:19;;;;;;;31.05;28.65;;;1.70;90.00;;;;;;5033210;28;20229;-72
2022/01/19 02:03:46;;;;;;;29.10;26.90;;;1.70;89.80;;;;;;5033421;28;20197;-72
2022/01/19 02:06:32;;;;;;;28.92;26.63;;;1.70;89.80;;;;;;5033288;28;20292;-72
2022/01/19 02:09:06;;;;;;;29.40;27.20;;;1.70;90.00;;;;;;5033367;28;20208;-71
2022/01/19 02:15:49;;;;;;;28.80;26.65;;;1.70;90.00;;;;;;5033142;28;20559;-72
2022/01/19 02:23:12;;;;;;;31.77;29.08;;;1.70;89.60;;;;;;5033067;28;20610;-72
2022/01/19 02:25:42;;;;;;;31.55;28.88;;;1.70;92.10;;;;;;5032934;28;20678;-72
2022/01/19 02:36:50;;;;;;;28.23;25.92;;;1.80;93.00;;;;;;5032858;28;20192;-72
2022/01/19 02:42:07;;;;;;;30.60;28.23;;;1.80;91.10;;;;;;5032879;28;20197;-72
2022/01/19 02:46:34;;;;;;;28.63;26.42;;;1.70;92.30;;;;;;5032787;28;20195;-71
2022/01/19 02:50:09;;;;;;;28.83;26.75;;;1.70;90.40;;;;;;5032471;28;20342;-71
2022/01/19 02:52:37;;;;;;;30.30;28.10;;;1.70;90.20;;;;;;5032452;28;20215;-72
2022/01/19 02:55:05;;;;;;;29.65;27.45;;;1.60;90.10;;;;;;5032415;28;20217;-72
2022/01/19 02:57:35;;;;;;;30.40;28.10;;;1.60;90.40;;;;;;5032475;28;20232;-71
2022/01/19 03:11:02;;;;;;;31.50;29.00;;;1.30;91.20;;;;;;5032381;28;20216;-71
2022/01/19 03:13:29;;;;;;;113.38;35.42;;;1.30;91.90;;;;;;5032269;28;20193;-72
2022/01/19 03:15:55;;;;;;;39.92;30.30;;;1.30;91.60;;;;;;5032383;28;20285;-72
2022/01/19 03:18:22;;;;;;;31.35;28.60;;;1.30;93.80;;;;;;5033507;28;20281;-72
2022/01/19 03:20:49;;;;;;;31.25;28.73;;;1.30;93.30;;;;;;5036073;28;20261;-71
2022/01/19 03:23:20;;;;;;;30.15;27.85;;;1.30;92.70;;;;;;5036366;28;20205;-72
2022/01/19 03:25:48;;;;;;;32.83;30.23;;;1.30;92.30;;;;;;5036417;28;20217;-72
2022/01/19 03:28:15;;;;;;;29.85;27.38;;;1.30;91.90;;;;;;5036227;28;20300;-72
2022/01/19 03:30:43;;;;;;;30.48;27.58;;;1.20;91.80;;;;;;5035947;28;20694;-71
2022/01/19 03:33:09;;;;;;;31.75;29.13;;;1.20;91.80;;;;;;5036128;28;20671;-72
2022/01/19 03:35:38;;;;;;;31.73;29.30;;;1.10;92.70;;;;;;5036079;28;20221;-72
2022/01/19 03:38:05;;;;;;;31.33;28.92;;;1.20;92.90;;;;;;5036053;28;20197;-72
2022/01/19 03:40:33;;;;;;;30.35;27.98;;;1.20;93.00;;;;;;5035957;28;20221;-71
2022/01/19 03:43:00;;;;;;;30.05;27.80;;;1.10;93.10;;;;;;5036031;28;20193;-71
2022/01/19 03:45:27;;;;;;;31.33;28.67;;;1.10;92.60;;;;;;5035942;28;20579;-72
2022/01/19 03:48:06;;;;;;;31.67;28.73;;;1.10;92.80;;;;;;5035845;28;20203;-72
2022/01/19 03:50:34;;;;;;;31.50;29.20;;;1.20;92.30;;;;;;5035668;28;20329;-72
2022/01/19 03:53:01;;;;;;;31.08;28.40;;;1.10;92.00;;;;;;5035793;28;20289;-72
2022/01/19 03:55:29;;;;;;;31.70;29.08;;;1.00;92.10;;;;;;5035595;28;20228;-72
2022/01/19 03:57:57;;;;;;;31.77;29.08;;;1.00;93.30;;;;;;5035719;28;20734;-72
2022/01/19 04:00:24;;;;;;;32.45;29.85;;;1.00;92.70;;;;;;5035106;28;20213;-72
2022/01/19 04:02:51;;;;;;;32.08;29.65;;;0.90;92.50;;;;;;5035637;28;20288;-72
2022/01/19 04:05:23;;;;;;;33.60;31.00;;;1.00;92.40;;;;;;5035486;28;20198;-71
2022/01/19 04:07:50;;;;;;;33.97;30.95;;;0.90;92.10;;;;;;5035600;28;20201;-71
2022/01/19 04:10:17;;;;;;;32.70;29.67;;;0.90;92.10;;;;;;5035142;28;20252;-72
2022/01/19 04:12:52;;;;;;;32.67;30.05;;;0.90;92.00;;;;;;5035446;28;20544;-72
2022/01/19 04:15:20;;;;;;;34.85;31.80;;;1.00;93.40;;;;;;5035397;28;20262;-71
2022/01/19 04:17:51;;;;;;;356.08;62.95;;;0.90;92.50;;;;;;5035378;28;20231;-72
2022/01/19 04:20:19;;;;;;;34.90;31.23;;;0.90;96.10;;;;;;5035142;28;20224;-72
2022/01/19 04:22:46;;;;;;;31.00;28.55;;;1.00;94.70;;;;;;5035208;28;20201;-72
2022/01/19 04:25:13;;;;;;;30.95;28.55;;;0.90;94.80;;;;;;5035221;28;20220;-72
2022/01/19 04:27:43;;;;;;;32.90;30.08;;;0.90;96.00;;;;;;5035088;28;20201;-71
2022/01/19 04:30:13;;;;;;;32.88;30.15;;;0.80;94.70;;;;;;5033676;28;20225;-72
2022/01/19 04:32:47;;;;;;;30.90;28.58;;;0.90;94.30;;;;;;5035133;28;20626;-72
2022/01/19 04:35:18;;;;;;;31.35;28.75;;;0.80;94.00;;;;;;5034953;28;20575;-72
2022/01/19 04:38:45;;;;;;;31.52;28.73;;;0.80;93.90;;;;;;5034967;28;20659;-72
2022/01/19 05:03:24;;;;;;;35.58;32.55;;;0.90;93.50;;;;;;5034648;28;20696;-71
2022/01/19 05:05:58;;;;;;;36.70;33.38;;;1.10;93.40;;;;;;5034291;28;20223;-71
2022/01/19 05:08:45;;;;;;;36.83;33.42;;;1.10;92.70;;;;;;5034414;28;20196;-72
2022/01/19 05:13:56;;;;;;;38.30;35.20;;;1.10;92.60;;;;;;5034367;28;20551;-72
2022/01/19 05:16:24;;;;;;;58.13;36.30;;;1.10;92.60;;;;;;5034340;28;20197;-72
2022/01/19 05:18:52;;;;;;;81.15;40.15;;;1.10;92.60;;;;;;5034138;28;20272;-72
2022/01/19 05:21:20;;;;;;;1999.90;377.35;;;1.10;92.70;;;;;;5033939;28;20223;-72
2022/01/19 05:23:47;;;;;;;36.45;33.20;;;1.10;93.70;;;;;;5034109;28;20681;-71
2022/01/19 05:26:14;;;;;;;35.70;32.38;;;1.10;94.00;;;;;;5034080;28;20532;-71
2022/01/19 05:28:42;;;;;;;33.03;30.23;;;1.10;93.80;;;;;;5034095;28;20288;-71
2022/01/19 05:31:09;;;;;;;37.10;33.40;;;1.10;93.10;;;;;;5033802;28;20795;-72
2022/01/19 05:33:36;;;;;;;33.90;31.20;;;1.10;92.60;;;;;;5033887;28;20710;-71
2022/01/19 05:36:04;;;;;;;35.15;31.73;;;1.10;92.40;;;;;;5033708;28;20695;-71
2022/01/19 05:38:32;;;;;;;34.75;31.75;;;1.10;92.10;;;;;;5033815;28;20232;-72
2022/01/19 05:40:59;;;;;;;35.75;32.75;;;1.00;91.90;;;;;;5033274;28;20594;-71
2022/01/19 05:43:26;;;;;;;34.10;31.30;;;0.90;91.60;;;;;;5033975;28;20284;-71
2022/01/19 05:45:53;;;;;;;108.95;36.75;;;0.90;91.90;;;;;;5033663;28;20200;-71
2022/01/19 05:48:20;;;;;;;33.50;30.73;;;0.90;93.50;;;;;;5033683;28;20193;-71
2022/01/19 05:50:47;;;;;;;35.35;32.00;;;0.80;93.90;;;;;;5033418;28;20271;-71
2022/01/19 05:53:15;;;;;;;34.83;32.03;;;0.80;94.30;;;;;;5033598;28;20232;-71
2022/01/19 05:55:44;;;;;;;33.75;30.83;;;0.80;94.00;;;;;;5033530;28;20344;-71
2022/01/19 05:58:11;;;;;;;34.88;32.22;;;0.80;93.60;;;;;;5033451;28;20201;-71
2022/01/19 06:00:38;;;;;;;34.90;31.90;;;0.80;93.20;;;;;;5032904;28;20647;-71
2022/01/19 06:03:05;;;;;;;33.35;30.55;;;0.70;93.00;;;;;;5033500;28;20622;-71
2022/01/19 06:05:32;;;;;;;35.72;32.88;;;0.70;92.90;;;;;;5033271;28;20563;-71
2022/01/19 06:08:16;;;;;;;33.67;30.80;;;0.70;92.90;;;;;;5033433;28;20566;-71
2022/01/19 06:10:44;;;;;;;35.13;32.22;;;0.70;92.80;;;;;;5033163;28;20761;-71
2022/01/19 06:13:13;;;;;;;33.92;30.80;;;0.70;92.50;;;;;;5033197;28;20233;-71
2022/01/19 06:15:40;;;;;;;35.88;32.72;;;0.70;92.50;;;;;;5033092;28;20220;-71
2022/01/19 06:18:07;;;;;;;34.35;31.45;;;0.60;92.50;;;;;;5032999;28;20575;-71
2022/01/19 06:20:34;;;;;;;34.25;31.60;;;0.60;92.50;;;;;;5032764;28;20221;-71
2022/01/19 06:23:01;;;;;;;34.60;31.60;;;0.60;92.60;;;;;;5033047;28;20215;-71
2022/01/19 06:25:28;;;;;;;34.28;31.38;;;0.60;92.80;;;;;;5032940;28;20193;-71
2022/01/19 06:27:57;;;;;;;32.97;30.38;;;0.60;92.90;;;;;;5032852;28;20208;-71
2022/01/19 06:30:24;;;;;;;37.72;34.38;;;0.60;92.80;;;;;;5032483;28;20698;-71
2022/01/19 06:32:51;;;;;;;33.80;30.90;;;0.70;92.60;;;;;;5032919;28;20282;-71
2022/01/19 06:35:18;;;;;;;33.17;30.02;;;0.60;92.20;;;;;;5032796;28;20221;-71
2022/01/19 06:37:45;;;;;;;35.22;32.25;;;0.60;92.40;;;;;;5032810;28;20304;-71
2022/01/19 06:40:14;;;;;;;32.30;29.60;;;0.60;92.30;;;;;;5032592;28;20726;-71
2022/01/19 06:42:42;;;;;;;35.25;32.25;;;0.60;92.50;;;;;;5032782;28;20197;-71
2022/01/19 06:45:11;;;;;;;33.95;30.88;;;0.70;92.50;;;;;;5032763;28;20197;-71
2022/01/19 06:47:39;;;;;;;34.88;31.73;;;0.70;92.20;;;;;;5032809;28;20282;-71
2022/01/19 06:50:08;;;;;;;34.05;31.40;;;0.70;91.90;;;;;;5032489;28;20249;-71
2022/01/19 06:52:36;;;;;;;34.05;30.67;;;0.70;92.00;;;;;;5031857;28;20697;-71
2022/01/19 06:55:03;;;;;;;34.97;32.22;;;0.70;92.10;;;;;;5032360;28;20316;-71
2022/01/19 06:57:30;;;;;;;33.92;31.13;;;0.70;92.00;;;;;;5032619;28;20201;-71
2022/01/19 06:59:57;;;;;;;34.33;31.30;;;0.70;91.90;;;;;;5031994;28;20304;-71
2022/01/19 07:02:28;;;;;;;35.03;31.83;;;0.70;91.80;;;;;;5032527;28;20193;-71
2022/01/19 07:04:54;;;;;;;34.83;31.95;;;0.70;91.90;;;;;;5032481;28;20284;-71
2022/01/19 07:07:22;;;;;;;34.67;31.60;;;0.70;91.60;;;;;;5032512;28;20207;-71
2022/01/19 07:09:49;;;;;;;34.33;31.63;;;0.70;91.60;;;;;;5032095;28;20304;-71
2022/01/19 07:12:17;;;;;;;35.83;32.30;;;0.60;91.70;;;;;;5032661;28;20228;-71
2022/01/19 07:14:44;;;;;;;38.13;34.47;;;0.70;92.00;;;;;;5032386;28;20305;-71
2022/01/19 07:17:11;;;;;;;36.90;33.75;;;0.70;91.70;;;;;;5032395;28;20204;-71
2022/01/19 07:19:39;;;;;;;37.15;33.95;;;0.70;91.60;;;;;;5032165;28;20217;-71
2022/01/19 07:22:06;;;;;;;36.03;32.88;;;0.70;91.70;;;;;;5032308;28;20197;-71
2022/01/19 07:24:33;;;;;;;35.50;32.38;;;0.70;91.60;;;;;;5032303;28;20202;-71
2022/01/19 07:27:01;;;;;;;34.78;31.88;;;0.70;91.60;;;;;;5032354;28;20197;-71
2022/01/19 07:29:28;;;;;;;37.63;34.33;;;0.60;91.80;;;;;;5032344;28;20308;-71
2022/01/19 07:31:57;;;;;;;35.28;32.10;;;0.60;92.10;;;;;;5032444;28;20568;-71
2022/01/19 07:34:25;;;;;;;35.10;32.10;;;0.60;92.20;;;;;;5032227;28;20208;-71
2022/01/19 07:36:54;;;;;;;37.10;33.90;;;0.60;92.30;;;;;;5032003;28;20219;-71
2022/01/19 07:39:21;;;;;;;35.65;32.85;;;0.50;92.30;;;;;;5032022;28;20197;-71
2022/01/19 07:41:48;;;;;;;37.50;34.50;;;0.50;92.50;;;;;;5032180;28;20291;-71
2022/01/19 07:44:15;;;;;;;35.40;32.50;;;0.50;93.10;;;;;;5032218;28;20678;-71
2022/01/19 07:46:42;;;;;;;35.53;32.58;;;0.50;93.10;;;;;;5032191;28;20252;-71
2022/01/19 07:49:09;;;;;;;34.85;31.95;;;0.50;93.00;;;;;;5031810;28;20212;-71
2022/01/19 07:51:36;;;;;;;36.88;33.20;;;0.50;93.10;;;;;;5032090;28;20199;-71
2022/01/19 07:54:04;;;;;;;35.20;32.03;;;0.60;92.70;;;;;;5032073;28;20691;-71
2022/01/19 07:56:31;;;;;;;37.45;33.85;;;0.70;92.40;;;;;;5032031;28;20232;-72
2022/01/19 07:58:58;;;;;;;36.20;32.70;;;0.60;92.30;;;;;;5031866;28;20202;-72
2022/01/19 08:01:27;;;;;;;1999.90;393.00;;;0.70;92.40;;;;;;5031790;28;20315;-71
2022/01/19 08:03:54;;;;;;;36.40;33.25;;;0.70;93.40;;;;;;5032000;28;20256;-71
2022/01/19 08:06:21;;;;;;;117.10;42.75;;;0.80;94.00;;;;;;5035467;28;20743;-71
2022/01/19 08:08:48;;;;;;;37.40;34.08;;;0.90;93.40;;;;;;5035438;28;20667;-72
2022/01/19 08:11:16;;;;;;;39.17;35.63;;;1.00;93.00;;;;;;5035421;28;20582;-72
2022/01/19 08:13:43;;;;;;;38.50;35.00;;;1.20;95.50;;;;;;5035458;28;20287;-72
2022/01/19 08:16:10;;;;;;;38.83;35.40;;;1.30;94.30;;;;;;5035203;28;20220;-71
2022/01/19 08:18:37;;;;;;;36.22;33.42;;;1.40;95.20;;;;;;5035260;28;20204;-72
2022/01/19 08:21:04;;;;;;;39.15;35.63;;;1.50;95.10;;;;;;5035125;28;20617;-71
2022/01/19 08:23:31;;;;;;;39.70;35.88;;;1.50;94.40;;;;;;5035478;28;20284;-71
2022/01/19 08:25:57;;;;;;;36.83;33.63;;;1.60;93.30;;;;;;5035297;28;20193;-72
2022/01/19 08:28:26;;;;;;;38.72;35.53;;;1.80;91.90;;;;;;5035214;28;20197;-72
2022/01/19 08:30:53;;;;;;;36.42;33.13;;;1.70;91.50;;;;;;5034752;28;20248;-72
2022/01/19 08:33:20;;;;;;;35.10;32.13;;;1.80;91.30;;;;;;5035188;28;20674;-72
2022/01/19 08:35:47;;;;;;;37.63;34.58;;;1.80;90.60;;;;;;5035078;28;20221;-72
2022/01/19 08:38:14;;;;;;;34.70;31.90;;;2.00;90.10;;;;;;5034959;28;20659;-72
2022/01/19 08:40:41;;;;;;;36.70;33.58;;;2.10;89.50;;;;;;5034735;28;20278;-72
2022/01/19 08:43:09;;;;;;;38.25;34.88;;;2.10;88.90;;;;;;5034763;28;20628;-72
2022/01/19 08:45:37;;;;;;;36.75;33.83;;;2.20;88.40;;;;;;5034844;28;20284;-72
2022/01/19 08:48:05;;;;;;;36.33;32.78;;;2.30;88.00;;;;;;5034838;28;20677;-72
2022/01/19 08:50:32;;;;;;;34.42;31.63;;;2.40;87.60;;;;;;5034563;28;20217;-71
2022/01/19 08:52:59;;;;;;;36.78;33.67;;;2.40;87.30;;;;;;5034604;28;20215;-71
2022/01/19 08:55:26;;;;;;;37.55;34.30;;;2.50;87.20;;;;;;5034537;28;20654;-71
2022/01/19 08:57:53;;;;;;;35.30;32.17;;;2.50;87.10;;;;;;5034478;28;20208;-72
2022/01/19 09:00:21;;;;;;;37.88;34.50;;;2.60;86.90;;;;;;5034045;28;20316;-71
2022/01/19 09:02:49;;;;;;;37.47;34.28;;;2.70;86.70;;;;;;5034601;28;20568;-72
2022/01/19 09:05:16;;;;;;;38.08;34.88;;;2.80;86.40;;;;;;5034366;28;20197;-72
2022/01/19 09:07:44;;;;;;;35.60;32.55;;;2.80;85.70;;;;;;5034476;28;20630;-71
2022/01/19 09:10:15;;;;;;;36.40;32.83;;;3.00;85.50;;;;;;5034148;28;20227;-72
2022/01/19 09:12:44;;;;;;;37.67;34.35;;;3.10;85.00;;;;;;5034486;28;20575;-71
2022/01/19 09:15:12;;;;;;;35.75;32.83;;;3.10;84.70;;;;;;5034206;28;20288;-71
2022/01/19 09:17:41;;;;;;;37.72;34.63;;;3.20;84.50;;;;;;5033790;28;20193;-72
2022/01/19 09:20:11;;;;;;;36.25;33.35;;;3.30;84.30;;;;;;5033949;28;20221;-72
2022/01/19 09:22:38;;;;;;;36.47;33.50;;;3.30;83.80;;;;;;5034134;28;20555;-72
2022/01/19 09:25:07;;;;;;;37.88;34.53;;;3.40;83.80;;;;;;5034031;28;20200;-72
2022/01/19 09:27:34;;;;;;;35.08;31.88;;;3.50;83.20;;;;;;5034057;28;20190;-72
2022/01/19 09:30:01;;;;;;;34.72;31.73;;;3.60;82.70;;;;;;5033694;28;20304;-72
2022/01/19 09:32:28;;;;;;;38.90;35.50;;;3.60;82.50;;;;;;5033939;28;20204;-72
2022/01/19 09:35:04;;;;;;;37.08;33.85;;;3.70;82.60;;;;;;5034135;28;20256;-72
2022/01/19 09:37:32;;;;;;;38.05;34.40;;;3.80;82.00;;;;;;5033774;28;20220;-71
2022/01/19 09:39:59;;;;;;;36.22;33.42;;;3.80;82.10;;;;;;5033537;28;20304;-72
2022/01/19 09:42:26;;;;;;;35.33;32.33;;;3.90;81.70;;;;;;5033971;28;20315;-72
2022/01/19 09:44:53;;;;;;;36.13;32.85;;;4.00;82.10;;;;;;5033719;28;20203;-72
2022/01/19 09:47:21;;;;;;;35.65;32.95;;;4.00;81.80;;;;;;5033657;28;20197;-72
2022/01/19 09:49:48;;;;;;;36.63;33.83;;;4.10;82.10;;;;;;5033397;28;20626;-72
2022/01/19 09:52:15;;;;;;;36.55;33.45;;;4.10;82.60;;;;;;5033532;28;20209;-72
2022/01/19 09:54:43;;;;;;;40.10;36.10;;;4.20;81.90;;;;;;5033611;28;20197;-72
2022/01/19 09:57:10;;;;;;;35.50;32.75;;;4.30;86.90;;;;;;5033439;28;20728;-72
2022/01/19 09:59:36;;;;;;;34.30;31.33;;;4.40;84.60;;;;;;5033061;28;20533;-72
2022/01/19 10:02:06;;;;;;;36.85;34.08;;;4.50;82.70;;;;;;5033589;28;20212;-72
2022/01/19 10:04:35;;;;;;;32.47;30.17;;;4.50;81.50;;;;;;5033158;28;20758;-72
2022/01/19 10:07:18;;;;;;;33.80;30.83;;;4.60;80.90;;;;;;5033328;28;20215;-72
2022/01/19 10:09:51;;;;;;;36.80;33.90;;;4.70;80.50;;;;;;5033072;28;20217;-72
2022/01/19 10:17:56;;;;;;;37.10;33.80;;;4.90;78.70;;;;;;5033370;28;20294;-72
2022/01/19 10:20:24;;;;;;;36.38;33.65;;;5.00;77.80;;;;;;5033072;28;20304;-73
2022/01/19 10:22:51;;;;;;;34.08;31.33;;;5.00;77.20;;;;;;5033318;28;20201;-72
2022/01/19 10:25:19;;;;;;;32.90;30.25;;;5.10;76.90;;;;;;5033115;28;20733;-73
2022/01/19 10:27:46;;;;;;;32.83;30.40;;;5.20;77.70;;;;;;5032155;28;20274;-73
2022/01/19 10:30:21;;;;;;;33.80;31.38;;;5.20;80.70;;;;;;5032778;28;20217;-73
2022/01/19 10:32:51;;;;;;;33.53;31.15;;;5.20;78.60;;;;;;5033100;28;20279;-73
2022/01/19 10:35:22;;;;;;;33.45;30.70;;;5.30;77.10;;;;;;5033080;28;20212;-73
2022/01/19 10:38:06;;;;;;;33.75;31.25;;;5.30;76.50;;;;;;5032842;28;20227;-73
2022/01/19 10:40:36;;;;;;;33.40;30.77;;;5.40;76.10;;;;;;5032662;28;20222;-73
2022/01/19 10:43:25;;;;;;;34.33;31.73;;;5.50;76.20;;;;;;5032867;28;20214;-73
2022/01/19 10:45:52;;;;;;;33.72;31.13;;;5.60;75.90;;;;;;5032767;28;20280;-73
2022/01/19 10:48:32;;;;;;;35.13;32.45;;;5.60;75.20;;;;;;5032702;28;20617;-73
2022/01/19 10:51:11;;;;;;;35.20;32.50;;;5.70;74.80;;;;;;5032486;28;20586;-73
2022/01/19 10:53:38;;;;;;;35.15;32.17;;;5.80;74.40;;;;;;5032657;28;20622;-73
2022/01/19 10:56:07;;;;;;;30.88;28.58;;;5.80;73.80;;;;;;5032609;28;20228;-73
2022/01/19 10:58:53;;;;;;;32.08;29.77;;;5.80;73.30;;;;;;5032613;28;20562;-73
2022/01/19 11:01:40;;;;;;;32.65;30.33;;;5.90;73.70;;;;;;5032445;28;20217;-72
2022/01/19 11:04:25;;;;;;;35.60;32.60;;;6.00;73.70;;;;;;5032507;28;20292;-73
2022/01/19 11:06:55;;;;;;;31.80;29.55;;;6.00;74.00;;;;;;5032462;28;20197;-73
2022/01/19 11:09:25;;;;;;;33.10;30.70;;;6.10;77.00;;;;;;5032230;28;20730;-73
2022/01/19 11:11:55;;;;;;;33.55;30.95;;;6.10;76.60;;;;;;5032457;28;20283;-73
2022/01/19 11:14:24;;;;;;;35.38;32.88;;;6.10;75.00;;;;;;5032542;28;20201;-73
2022/01/19 11:16:51;;;;;;;36.92;33.83;;;6.20;74.50;;;;;;5032454;28;20217;-73
2022/01/19 11:19:19;;;;;;;35.35;32.72;;;6.20;74.90;;;;;;5032142;28;20205;-73
2022/01/19 11:22:02;;;;;;;35.13;32.35;;;6.30;74.00;;;;;;5032302;28;20275;-73
2022/01/19 11:24:36;;;;;;;33.15;30.75;;;6.40;72.20;;;;;;5032432;28;20201;-73
2022/01/19 11:27:05;;;;;;;32.50;30.20;;;6.40;71.50;;;;;;5032332;28;20202;-73
2022/01/19 11:29:32;;;;;;;32.75;30.15;;;6.30;72.20;;;;;;5032023;28;20227;-73
2022/01/19 11:32:15;;;;;;;33.13;30.63;;;6.30;72.40;;;;;;5032218;28;20243;-73
2022/01/19 11:34:46;;;;;;;33.42;31.20;;;6.40;72.40;;;;;;5032172;28;20212;-73
2022/01/19 11:37:14;;;;;;;35.15;32.55;;;6.40;72.00;;;;;;5032170;28;20221;-73
2022/01/19 11:40:12;;;;;;;34.85;32.15;;;6.50;71.90;;;;;;5033635;28;20311;-73
2022/01/19 11:42:41;;;;;;;38.45;35.00;;;6.70;71.30;;;;;;5036152;28;20681;-73
2022/01/19 11:45:10;;;;;;;35.50;32.70;;;6.50;71.50;;;;;;5036071;28;20284;-72
2022/01/19 11:47:42;;;;;;;38.97;35.92;;;6.60;71.20;;;;;;5036074;28;20228;-73
2022/01/19 11:50:13;;;;;;;36.63;33.92;;;6.60;71.00;;;;;;5035696;28;20271;-73
2022/01/19 11:53:08;;;;;;;36.45;33.55;;;6.40;71.60;;;;;;5035777;28;20209;-73
2022/01/19 11:55:35;;;;;;;40.97;37.55;;;6.40;72.00;;;;;;5035910;28;20220;-73
2022/01/19 11:58:16;;;;;;;37.25;33.90;;;6.30;72.30;;;;;;5035725;28;20217;-73
2022/01/19 12:00:44;;;;;;;38.95;35.78;;;6.30;72.80;;;;;;5035266;28;20224;-72
2022/01/19 12:03:21;;;;;;;41.17;37.50;;;6.40;71.90;;;;;;5035888;28;20201;-73
2022/01/19 12:05:50;;;;;;;36.95;33.85;;;6.50;72.10;;;;;;5035469;28;20255;-73
2022/01/19 12:08:30;;;;;;;36.55;33.60;;;6.50;72.00;;;;;;5035550;28;20613;-73
2022/01/19 12:11:01;;;;;;;37.28;34.10;;;6.60;71.70;;;;;;5035422;28;20221;-73
2022/01/19 12:13:40;;;;;;;36.63;33.75;;;6.60;71.40;;;;;;5035565;28;20197;-73
2022/01/19 12:16:12;;;;;;;34.72;32.00;;;6.50;71.70;;;;;;5035308;28;20358;-73
2022/01/19 12:18:46;;;;;;;35.40;32.75;;;6.30;72.10;;;;;;5035507;28;20201;-73
2022/01/19 12:21:15;;;;;;;37.08;33.88;;;6.00;73.10;;;;;;5035188;28;20221;-73
2022/01/19 12:23:43;;;;;;;35.55;32.50;;;5.90;73.50;;;;;;5035346;28;20197;-72
2022/01/19 12:26:11;;;;;;;35.17;32.65;;;5.70;73.80;;;;;;5035229;28;20288;-73
2022/01/19 12:28:45;;;;;;;34.00;31.20;;;5.70;74.40;;;;;;5035214;28;20566;-73
2022/01/19 12:31:36;;;;;;;36.38;33.63;;;5.80;74.20;;;;;;5035177;28;20216;-73
2022/01/19 12:34:20;;;;;;;34.30;31.55;;;5.80;74.20;;;;;;5035146;28;20292;-73
2022/01/19 12:36:51;;;;;;;36.88;33.72;;;5.50;74.80;;;;;;5034902;28;20695;-73
2022/01/19 12:39:38;;;;;;;31.50;29.27;;;5.60;75.40;;;;;;5034908;28;20264;-73
2022/01/19 12:42:13;;;;;;;33.92;31.23;;;5.50;75.30;;;;;;5034982;28;20201;-73
2022/01/19 12:44:47;;;;;;;35.40;32.63;;;5.60;75.70;;;;;;5035071;28;20287;-73
2022/01/19 12:47:49;;;;;;;34.67;31.88;;;5.70;75.80;;;;;;5034959;28;20279;-73
2022/01/19 12:50:42;;;;;;;35.15;32.65;;;5.80;74.80;;;;;;5034233;28;20248;-73
2022/01/19 12:53:14;;;;;;;34.83;32.17;;;5.80;74.70;;;;;;5034668;28;20205;-73
2022/01/19 12:55:43;;;;;;;32.50;30.20;;;6.00;73.90;;;;;;5034802;28;20204;-73
2022/01/19 12:58:13;;;;;;;34.90;32.08;;;6.10;73.80;;;;;;5034615;28;20552;-73
2022/01/19 13:00:42;;;;;;;34.38;31.98;;;6.10;73.70;;;;;;5034164;28;20231;-73
2022/01/19 13:03:16;;;;;;;35.10;32.08;;;6.20;76.60;;;;;;5034878;28;20251;-73
2022/01/19 13:05:48;;;;;;;32.13;29.70;;;6.30;74.50;;;;;;5034344;28;20197;-73
2022/01/19 13:08:25;;;;;;;33.13;30.60;;;6.60;72.70;;;;;;5034465;28;20197;-73
2022/01/19 13:10:55;;;;;;;32.70;30.20;;;6.80;71.70;;;;;;5034323;28;20216;-73
2022/01/19 13:13:28;;;;;;;32.03;29.52;;;6.90;73.10;;;;;;5034570;28;20296;-73
2022/01/19 13:15:59;;;;;;;34.38;31.88;;;6.90;73.60;;;;;;5034392;28;20217;-73
2022/01/19 13:18:36;;;;;;;33.10;30.58;;;7.10;73.10;;;;;;5034134;28;20217;-73
2022/01/19 13:21:06;;;;;;;32.00;29.20;;;7.20;74.30;;;;;;5034101;28;20229;-73
2022/01/19 13:23:36;;;;;;;34.65;32.38;;;7.30;73.90;;;;;;5034333;28;20295;-73
2022/01/19 13:26:06;;;;;;;32.90;30.65;;;7.40;73.30;;;;;;5034214;28;20320;-73
2022/01/19 13:28:35;;;;;;;33.10;30.23;;;7.50;72.70;;;;;;5034214;28;20562;-73
2022/01/19 13:31:17;;;;;;;35.55;32.85;;;7.60;71.70;;;;;;5033835;28;20221;-73
2022/01/19 13:33:54;;;;;;;31.52;29.40;;;7.60;71.90;;;;;;5033977;28;20197;-73
2022/01/19 13:36:26;;;;;;;33.10;30.70;;;7.60;71.90;;;;;;5034038;28;20197;-73
2022/01/19 13:38:53;;;;;;;34.03;30.85;;;7.70;72.80;;;;;;5033841;28;20621;-72
2022/01/19 13:41:20;;;;;;;33.22;30.77;;;7.80;73.00;;;;;;5033741;28;20213;-73
2022/01/19 13:43:47;;;;;;;33.13;30.58;;;7.80;72.30;;;;;;5033817;28;20197;-73
2022/01/19 13:46:22;;;;;;;31.63;29.23;;;7.80;71.90;;;;;;5033770;28;20567;-73
2022/01/19 13:48:57;;;;;;;33.20;30.88;;;7.90;70.60;;;;;;5033665;28;20227;-73
2022/01/19 13:51:25;;;;;;;33.70;31.38;;;7.90;70.80;;;;;;5033561;28;20227;-73
2022/01/19 13:53:53;;;;;;;33.22;30.50;;;7.90;70.60;;;;;;5033421;28;20698;-73
2022/01/19 13:56:27;;;;;;;29.90;27.95;;;8.00;71.30;;;;;;5033574;28;20288;-73
2022/01/19 13:58:57;;;;;;;31.13;28.63;;;8.00;71.30;;;;;;5033200;28;20225;-73